sensor_id;sensor_type;location;lat;lon;timestamp;P1;durP1;ratioP1;P2;durP2;ratioP2
9888;SDS011;4983;42.112;24.738;2022-12-07T00:00:51;21.00;;;13.47;;
9888;SDS011;4983;42.112;24.738;2022-12-07T00:03:17;23.47;;;14.90;;
9888;SDS011;4983;42.112;24.738;2022-12-07T00:05:46;18.53;;;12.53;;
9888;SDS011;4983;42.112;24.738;2022-12-07T00:08:13;19.70;;;12.37;;
9888;SDS011;4983;42.112;24.738;2022-12-07T00:10:40;21.53;;;12.30;;
9888;SDS011;4983;42.112;24.738;2022-12-07T00:13:09;16.70;;;10.83;;
9888;SDS011;4983;42.112;24.738;2022-12-07T00:15:35;17.73;;;11.73;;
9888;SDS011;4983;42.112;24.738;2022-12-07T00:18:04;17.03;;;10.80;;
9888;SDS011;4983;42.112;24.738;2022-12-07T00:20:31;17.10;;;10.53;;
9888;SDS011;4983;42.112;24.738;2022-12-07T00:22:58;17.70;;;10.40;;
9888;SDS011;4983;42.112;24.738;2022-12-07T00:25:25;12.67;;;9.67;;
9888;SDS011;4983;42.112;24.738;2022-12-07T00:27:52;18.50;;;11.57;;
9888;SDS011;4983;42.112;24.738;2022-12-07T00:30:20;16.23;;;11.83;;
9888;SDS011;4983;42.112;24.738;2022-12-07T00:32:47;16.07;;;11.67;;
9888;SDS011;4983;42.112;24.738;2022-12-07T00:35:15;20.33;;;12.20;;
9888;SDS011;4983;42.112;24.738;2022-12-07T00:37:42;19.33;;;11.33;;
9888;SDS011;4983;42.112;24.738;2022-12-07T00:40:09;18.97;;;10.80;;
9888;SDS011;4983;42.112;24.738;2022-12-07T00:42:36;18.07;;;11.33;;
9888;SDS011;4983;42.112;24.738;2022-12-07T00:45:03;19.43;;;11.87;;
9888;SDS011;4983;42.112;24.738;2022-12-07T00:47:30;20.27;;;12.80;;
9888;SDS011;4983;42.112;24.738;2022-12-07T00:49:56;20.40;;;15.80;;
9888;SDS011;4983;42.112;24.738;2022-12-07T00:52:25;36.03;;;17.77;;
9888;SDS011;4983;42.112;24.738;2022-12-07T00:54:52;58.37;;;16.57;;
9888;SDS011;4983;42.112;24.738;2022-12-07T00:57:18;49.13;;;16.17;;
9888;SDS011;4983;42.112;24.738;2022-12-07T00:59:45;42.43;;;16.00;;
9888;SDS011;4983;42.112;24.738;2022-12-07T01:02:12;27.83;;;14.17;;
9888;SDS011;4983;42.112;24.738;2022-12-07T01:04:38;24.00;;;14.83;;
9888;SDS011;4983;42.112;24.738;2022-12-07T01:07:05;23.50;;;15.00;;
9888;SDS011;4983;42.112;24.738;2022-12-07T01:09:33;22.43;;;14.87;;
9888;SDS011;4983;42.112;24.738;2022-12-07T01:12:01;25.00;;;15.40;;
9888;SDS011;4983;42.112;24.738;2022-12-07T01:14:28;19.43;;;14.23;;
9888;SDS011;4983;42.112;24.738;2022-12-07T01:16:54;24.30;;;14.30;;
9888;SDS011;4983;42.112;24.738;2022-12-07T01:19:21;22.30;;;14.53;;
9888;SDS011;4983;42.112;24.738;2022-12-07T01:21:48;27.27;;;15.13;;
9888;SDS011;4983;42.112;24.738;2022-12-07T01:24:16;22.87;;;15.97;;
9888;SDS011;4983;42.112;24.738;2022-12-07T01:26:45;28.57;;;17.10;;
9888;SDS011;4983;42.112;24.738;2022-12-07T01:29:11;26.43;;;15.97;;
9888;SDS011;4983;42.112;24.738;2022-12-07T01:31:38;24.83;;;15.17;;
9888;SDS011;4983;42.112;24.738;2022-12-07T01:34:05;49.50;;;18.23;;
9888;SDS011;4983;42.112;24.738;2022-12-07T01:36:32;92.63;;;22.50;;
9888;SDS011;4983;42.112;24.738;2022-12-07T01:39:00;59.43;;;20.53;;
9888;SDS011;4983;42.112;24.738;2022-12-07T01:41:28;28.13;;;16.47;;
9888;SDS011;4983;42.112;24.738;2022-12-07T01:44:14;27.03;;;15.43;;
9888;SDS011;4983;42.112;24.738;2022-12-07T01:46:42;30.23;;;16.80;;
9888;SDS011;4983;42.112;24.738;2022-12-07T01:49:10;29.87;;;15.43;;
9888;SDS011;4983;42.112;24.738;2022-12-07T01:51:38;21.57;;;15.87;;
9888;SDS011;4983;42.112;24.738;2022-12-07T01:54:06;22.90;;;15.63;;
9888;SDS011;4983;42.112;24.738;2022-12-07T01:56:33;24.17;;;15.03;;
9888;SDS011;4983;42.112;24.738;2022-12-07T01:59:00;25.23;;;18.13;;
9888;SDS011;4983;42.112;24.738;2022-12-07T02:01:29;22.63;;;15.43;;
9888;SDS011;4983;42.112;24.738;2022-12-07T02:03:55;23.37;;;16.73;;
9888;SDS011;4983;42.112;24.738;2022-12-07T02:06:24;23.47;;;15.87;;
9888;SDS011;4983;42.112;24.738;2022-12-07T02:08:54;23.50;;;15.67;;
9888;SDS011;4983;42.112;24.738;2022-12-07T02:11:21;23.67;;;16.10;;
9888;SDS011;4983;42.112;24.738;2022-12-07T02:13:48;28.83;;;17.33;;
9888;SDS011;4983;42.112;24.738;2022-12-07T02:16:21;22.40;;;15.63;;
9888;SDS011;4983;42.112;24.738;2022-12-07T02:18:57;25.10;;;15.90;;
9888;SDS011;4983;42.112;24.738;2022-12-07T02:21:29;23.87;;;15.87;;
9888;SDS011;4983;42.112;24.738;2022-12-07T02:29:34;32.27;;;17.33;;
9888;SDS011;4983;42.112;24.738;2022-12-07T02:32:08;25.20;;;16.10;;
9888;SDS011;4983;42.112;24.738;2022-12-07T02:34:40;28.17;;;16.53;;
9888;SDS011;4983;42.112;24.738;2022-12-07T02:37:10;44.50;;;18.27;;
9888;SDS011;4983;42.112;24.738;2022-12-07T02:39:40;24.17;;;14.77;;
9888;SDS011;4983;42.112;24.738;2022-12-07T02:42:13;24.17;;;15.83;;
9888;SDS011;4983;42.112;24.738;2022-12-07T02:44:43;23.90;;;14.63;;
9888;SDS011;4983;42.112;24.738;2022-12-07T02:47:10;35.57;;;15.60;;
9888;SDS011;4983;42.112;24.738;2022-12-07T02:49:39;31.63;;;15.47;;
9888;SDS011;4983;42.112;24.738;2022-12-07T02:52:06;24.27;;;13.80;;
9888;SDS011;4983;42.112;24.738;2022-12-07T02:54:33;22.17;;;15.77;;
9888;SDS011;4983;42.112;24.738;2022-12-07T02:57:00;23.90;;;15.13;;
9888;SDS011;4983;42.112;24.738;2022-12-07T02:59:33;27.43;;;14.47;;
9888;SDS011;4983;42.112;24.738;2022-12-07T03:02:10;21.73;;;14.27;;
9888;SDS011;4983;42.112;24.738;2022-12-07T03:04:42;20.07;;;13.80;;
9888;SDS011;4983;42.112;24.738;2022-12-07T03:07:11;22.87;;;14.53;;
9888;SDS011;4983;42.112;24.738;2022-12-07T03:09:42;32.40;;;15.00;;
9888;SDS011;4983;42.112;24.738;2022-12-07T03:12:10;28.63;;;14.90;;
9888;SDS011;4983;42.112;24.738;2022-12-07T03:14:40;24.30;;;14.03;;
9888;SDS011;4983;42.112;24.738;2022-12-07T03:17:10;37.73;;;13.60;;
9888;SDS011;4983;42.112;24.738;2022-12-07T03:19:37;22.40;;;14.57;;
9888;SDS011;4983;42.112;24.738;2022-12-07T03:22:05;21.27;;;15.80;;
9888;SDS011;4983;42.112;24.738;2022-12-07T03:24:35;37.57;;;26.07;;
9888;SDS011;4983;42.112;24.738;2022-12-07T03:27:03;21.03;;;15.33;;
9888;SDS011;4983;42.112;24.738;2022-12-07T03:29:35;24.93;;;15.17;;
9888;SDS011;4983;42.112;24.738;2022-12-07T03:32:04;23.20;;;14.57;;
9888;SDS011;4983;42.112;24.738;2022-12-07T03:34:34;23.17;;;14.80;;
9888;SDS011;4983;42.112;24.738;2022-12-07T03:37:03;23.40;;;15.73;;
9888;SDS011;4983;42.112;24.738;2022-12-07T03:39:33;21.27;;;15.00;;
9888;SDS011;4983;42.112;24.738;2022-12-07T03:42:01;24.57;;;15.93;;
9888;SDS011;4983;42.112;24.738;2022-12-07T03:44:29;25.73;;;17.00;;
9888;SDS011;4983;42.112;24.738;2022-12-07T03:46:57;22.93;;;16.10;;
9888;SDS011;4983;42.112;24.738;2022-12-07T03:49:27;24.00;;;15.23;;
9888;SDS011;4983;42.112;24.738;2022-12-07T03:52:00;39.00;;;34.77;;
9888;SDS011;4983;42.112;24.738;2022-12-07T03:54:29;41.50;;;35.87;;
9888;SDS011;4983;42.112;24.738;2022-12-07T03:56:58;26.23;;;18.37;;
9888;SDS011;4983;42.112;24.738;2022-12-07T03:59:25;21.73;;;15.77;;
9888;SDS011;4983;42.112;24.738;2022-12-07T04:01:53;19.63;;;13.97;;
9888;SDS011;4983;42.112;24.738;2022-12-07T04:04:20;19.53;;;14.00;;
9888;SDS011;4983;42.112;24.738;2022-12-07T04:06:47;42.37;;;15.63;;
9888;SDS011;4983;42.112;24.738;2022-12-07T04:09:16;38.37;;;14.43;;
9888;SDS011;4983;42.112;24.738;2022-12-07T04:11:43;37.97;;;15.37;;
9888;SDS011;4983;42.112;24.738;2022-12-07T04:14:09;33.92;;;17.63;;
9888;SDS011;4983;42.112;24.738;2022-12-07T04:16:45;23.97;;;17.03;;
9888;SDS011;4983;42.112;24.738;2022-12-07T04:19:12;23.07;;;15.03;;
9888;SDS011;4983;42.112;24.738;2022-12-07T04:21:39;25.63;;;13.80;;
9888;SDS011;4983;42.112;24.738;2022-12-07T04:24:06;27.33;;;14.73;;
9888;SDS011;4983;42.112;24.738;2022-12-07T04:26:34;49.67;;;18.10;;
9888;SDS011;4983;42.112;24.738;2022-12-07T04:29:01;57.10;;;17.77;;
9888;SDS011;4983;42.112;24.738;2022-12-07T04:31:27;41.33;;;17.17;;
9888;SDS011;4983;42.112;24.738;2022-12-07T04:33:54;26.93;;;13.93;;
9888;SDS011;4983;42.112;24.738;2022-12-07T04:36:21;26.13;;;14.80;;
9888;SDS011;4983;42.112;24.738;2022-12-07T04:38:47;27.50;;;14.40;;
9888;SDS011;4983;42.112;24.738;2022-12-07T04:41:14;25.77;;;15.43;;
9888;SDS011;4983;42.112;24.738;2022-12-07T04:43:42;34.30;;;15.43;;
9888;SDS011;4983;42.112;24.738;2022-12-07T04:46:09;26.20;;;15.10;;
9888;SDS011;4983;42.112;24.738;2022-12-07T04:48:36;36.93;;;15.73;;
9888;SDS011;4983;42.112;24.738;2022-12-07T04:51:03;29.63;;;16.63;;
9888;SDS011;4983;42.112;24.738;2022-12-07T04:53:30;25.33;;;15.40;;
9888;SDS011;4983;42.112;24.738;2022-12-07T04:55:57;27.93;;;16.73;;
9888;SDS011;4983;42.112;24.738;2022-12-07T04:58:24;36.60;;;17.00;;
9888;SDS011;4983;42.112;24.738;2022-12-07T05:00:54;36.70;;;17.20;;
9888;SDS011;4983;42.112;24.738;2022-12-07T05:03:22;66.80;;;17.77;;
9888;SDS011;4983;42.112;24.738;2022-12-07T05:05:49;57.73;;;18.60;;
9888;SDS011;4983;42.112;24.738;2022-12-07T05:08:16;72.30;;;18.30;;
9888;SDS011;4983;42.112;24.738;2022-12-07T05:10:43;68.57;;;18.50;;
9888;SDS011;4983;42.112;24.738;2022-12-07T05:13:10;70.37;;;18.73;;
9888;SDS011;4983;42.112;24.738;2022-12-07T05:15:37;48.23;;;20.07;;
9888;SDS011;4983;42.112;24.738;2022-12-07T05:18:05;88.57;;;25.93;;
9888;SDS011;4983;42.112;24.738;2022-12-07T05:20:31;37.00;;;16.17;;
9888;SDS011;4983;42.112;24.738;2022-12-07T05:22:59;33.23;;;16.33;;
9888;SDS011;4983;42.112;24.738;2022-12-07T05:25:25;42.90;;;17.53;;
9888;SDS011;4983;42.112;24.738;2022-12-07T05:27:53;50.87;;;18.77;;
9888;SDS011;4983;42.112;24.738;2022-12-07T05:30:21;77.57;;;21.47;;
9888;SDS011;4983;42.112;24.738;2022-12-07T05:32:47;70.83;;;21.63;;
9888;SDS011;4983;42.112;24.738;2022-12-07T05:35:16;48.57;;;18.50;;
9888;SDS011;4983;42.112;24.738;2022-12-07T05:37:43;26.10;;;13.50;;
9888;SDS011;4983;42.112;24.738;2022-12-07T05:40:10;59.47;;;18.80;;
9888;SDS011;4983;42.112;24.738;2022-12-07T05:42:38;67.13;;;19.03;;
9888;SDS011;4983;42.112;24.738;2022-12-07T05:45:04;68.10;;;18.60;;
9888;SDS011;4983;42.112;24.738;2022-12-07T05:47:32;46.90;;;16.97;;
9888;SDS011;4983;42.112;24.738;2022-12-07T05:49:58;64.43;;;18.77;;
9888;SDS011;4983;42.112;24.738;2022-12-07T05:52:26;85.90;;;23.07;;
9888;SDS011;4983;42.112;24.738;2022-12-07T05:54:53;41.03;;;16.73;;
9888;SDS011;4983;42.112;24.738;2022-12-07T05:57:20;207.50;;;27.67;;
9888;SDS011;4983;42.112;24.738;2022-12-07T05:59:47;33.97;;;15.17;;
9888;SDS011;4983;42.112;24.738;2022-12-07T06:02:13;43.07;;;18.03;;
9888;SDS011;4983;42.112;24.738;2022-12-07T06:04:41;82.43;;;27.73;;
9888;SDS011;4983;42.112;24.738;2022-12-07T06:07:08;129.37;;;33.60;;
9888;SDS011;4983;42.112;24.738;2022-12-07T06:09:37;98.07;;;35.67;;
9888;SDS011;4983;42.112;24.738;2022-12-07T06:12:04;83.90;;;32.97;;
9888;SDS011;4983;42.112;24.738;2022-12-07T06:14:48;89.23;;;33.80;;
9888;SDS011;4983;42.112;24.738;2022-12-07T06:17:15;109.13;;;30.87;;
9888;SDS011;4983;42.112;24.738;2022-12-07T06:19:42;81.97;;;30.43;;
9888;SDS011;4983;42.112;24.738;2022-12-07T06:22:09;71.00;;;30.83;;
9888;SDS011;4983;42.112;24.738;2022-12-07T06:24:38;86.27;;;30.50;;
9888;SDS011;4983;42.112;24.738;2022-12-07T06:27:05;106.80;;;30.20;;
9888;SDS011;4983;42.112;24.738;2022-12-07T06:29:32;66.83;;;29.57;;
9888;SDS011;4983;42.112;24.738;2022-12-07T06:31:58;54.13;;;28.73;;
9888;SDS011;4983;42.112;24.738;2022-12-07T06:34:25;63.20;;;33.03;;
9888;SDS011;4983;42.112;24.738;2022-12-07T06:36:52;88.80;;;34.63;;
9888;SDS011;4983;42.112;24.738;2022-12-07T06:39:21;70.57;;;41.27;;
9888;SDS011;4983;42.112;24.738;2022-12-07T06:41:49;48.27;;;26.80;;
9888;SDS011;4983;42.112;24.738;2022-12-07T06:44:18;65.70;;;30.80;;
9888;SDS011;4983;42.112;24.738;2022-12-07T06:46:45;52.97;;;31.77;;
9888;SDS011;4983;42.112;24.738;2022-12-07T06:49:11;58.13;;;34.57;;
9888;SDS011;4983;42.112;24.738;2022-12-07T06:51:38;50.67;;;30.40;;
9888;SDS011;4983;42.112;24.738;2022-12-07T06:54:06;49.57;;;29.03;;
9888;SDS011;4983;42.112;24.738;2022-12-07T06:56:33;56.07;;;29.93;;
9888;SDS011;4983;42.112;24.738;2022-12-07T06:59:01;66.57;;;33.37;;
9888;SDS011;4983;42.112;24.738;2022-12-07T07:01:28;78.87;;;30.43;;
9888;SDS011;4983;42.112;24.738;2022-12-07T07:03:55;72.77;;;29.00;;
9888;SDS011;4983;42.112;24.738;2022-12-07T07:06:21;45.43;;;26.03;;
9888;SDS011;4983;42.112;24.738;2022-12-07T07:08:48;49.67;;;24.77;;
9888;SDS011;4983;42.112;24.738;2022-12-07T07:11:15;50.37;;;27.00;;
9888;SDS011;4983;42.112;24.738;2022-12-07T07:13:42;57.17;;;29.30;;
9888;SDS011;4983;42.112;24.738;2022-12-07T07:16:12;51.03;;;27.20;;
9888;SDS011;4983;42.112;24.738;2022-12-07T07:18:39;48.13;;;26.90;;
9888;SDS011;4983;42.112;24.738;2022-12-07T07:21:06;42.83;;;24.83;;
9888;SDS011;4983;42.112;24.738;2022-12-07T07:23:33;58.33;;;27.37;;
9888;SDS011;4983;42.112;24.738;2022-12-07T07:26:00;55.63;;;27.60;;
9888;SDS011;4983;42.112;24.738;2022-12-07T07:28:29;64.97;;;27.70;;
9888;SDS011;4983;42.112;24.738;2022-12-07T07:30:55;50.87;;;32.40;;
9888;SDS011;4983;42.112;24.738;2022-12-07T07:33:23;54.93;;;31.80;;
9888;SDS011;4983;42.112;24.738;2022-12-07T07:35:52;61.87;;;29.53;;
9888;SDS011;4983;42.112;24.738;2022-12-07T07:38:18;66.07;;;34.88;;
9888;SDS011;4983;42.112;24.738;2022-12-07T07:40:48;44.83;;;27.97;;
9888;SDS011;4983;42.112;24.738;2022-12-07T07:43:15;53.97;;;28.43;;
9888;SDS011;4983;42.112;24.738;2022-12-07T07:45:43;42.53;;;26.70;;
9888;SDS011;4983;42.112;24.738;2022-12-07T07:48:10;40.23;;;25.03;;
9888;SDS011;4983;42.112;24.738;2022-12-07T07:50:39;34.93;;;24.80;;
9888;SDS011;4983;42.112;24.738;2022-12-07T07:53:06;54.70;;;26.30;;
9888;SDS011;4983;42.112;24.738;2022-12-07T07:55:33;73.40;;;28.47;;
9888;SDS011;4983;42.112;24.738;2022-12-07T07:58:00;62.40;;;29.13;;
9888;SDS011;4983;42.112;24.738;2022-12-07T08:00:27;81.03;;;34.10;;
9888;SDS011;4983;42.112;24.738;2022-12-07T08:02:55;41.37;;;24.27;;
9888;SDS011;4983;42.112;24.738;2022-12-07T08:05:21;37.70;;;24.10;;
9888;SDS011;4983;42.112;24.738;2022-12-07T08:07:49;36.87;;;22.53;;
9888;SDS011;4983;42.112;24.738;2022-12-07T08:10:16;38.43;;;25.33;;
9888;SDS011;4983;42.112;24.738;2022-12-07T08:12:43;43.40;;;25.90;;
9888;SDS011;4983;42.112;24.738;2022-12-07T08:15:28;36.67;;;26.00;;
9888;SDS011;4983;42.112;24.738;2022-12-07T08:17:55;46.17;;;28.73;;
9888;SDS011;4983;42.112;24.738;2022-12-07T08:20:22;45.83;;;30.50;;
9888;SDS011;4983;42.112;24.738;2022-12-07T08:22:50;47.97;;;29.97;;
9888;SDS011;4983;42.112;24.738;2022-12-07T08:25:17;330.87;;;40.23;;
9888;SDS011;4983;42.112;24.738;2022-12-07T08:27:44;165.97;;;31.57;;
9888;SDS011;4983;42.112;24.738;2022-12-07T08:30:11;37.87;;;22.43;;
9888;SDS011;4983;42.112;24.738;2022-12-07T08:32:39;47.53;;;21.60;;
9888;SDS011;4983;42.112;24.738;2022-12-07T08:35:06;70.93;;;24.20;;
9888;SDS011;4983;42.112;24.738;2022-12-07T08:37:34;35.37;;;22.23;;
9888;SDS011;4983;42.112;24.738;2022-12-07T08:40:03;106.40;;;25.93;;
9888;SDS011;4983;42.112;24.738;2022-12-07T08:42:30;122.40;;;27.33;;
9888;SDS011;4983;42.112;24.738;2022-12-07T08:45:03;39.50;;;22.67;;
9888;SDS011;4983;42.112;24.738;2022-12-07T08:47:31;36.57;;;22.67;;
9888;SDS011;4983;42.112;24.738;2022-12-07T08:49:58;39.13;;;23.63;;
9888;SDS011;4983;42.112;24.738;2022-12-07T08:52:28;36.20;;;21.83;;
9888;SDS011;4983;42.112;24.738;2022-12-07T08:54:56;48.50;;;22.27;;
9888;SDS011;4983;42.112;24.738;2022-12-07T08:57:24;35.47;;;23.40;;
9888;SDS011;4983;42.112;24.738;2022-12-07T08:59:51;53.33;;;25.07;;
9888;SDS011;4983;42.112;24.738;2022-12-07T09:02:18;36.63;;;24.23;;
9888;SDS011;4983;42.112;24.738;2022-12-07T09:04:45;41.93;;;24.57;;
9888;SDS011;4983;42.112;24.738;2022-12-07T09:07:12;48.47;;;25.27;;
9888;SDS011;4983;42.112;24.738;2022-12-07T09:09:38;35.00;;;24.20;;
9888;SDS011;4983;42.112;24.738;2022-12-07T09:12:05;39.60;;;26.03;;
9888;SDS011;4983;42.112;24.738;2022-12-07T09:14:34;57.20;;;29.77;;
9888;SDS011;4983;42.112;24.738;2022-12-07T09:17:05;34.40;;;24.67;;
9888;SDS011;4983;42.112;24.738;2022-12-07T09:19:31;138.00;;;29.00;;
9888;SDS011;4983;42.112;24.738;2022-12-07T09:21:58;40.40;;;25.03;;
9888;SDS011;4983;42.112;24.738;2022-12-07T09:24:25;39.13;;;23.33;;
9888;SDS011;4983;42.112;24.738;2022-12-07T09:26:52;74.43;;;28.00;;
9888;SDS011;4983;42.112;24.738;2022-12-07T09:29:18;58.27;;;24.40;;
9888;SDS011;4983;42.112;24.738;2022-12-07T09:31:47;47.73;;;23.40;;
9888;SDS011;4983;42.112;24.738;2022-12-07T09:34:14;39.70;;;22.07;;
9888;SDS011;4983;42.112;24.738;2022-12-07T09:36:41;33.23;;;22.57;;
9888;SDS011;4983;42.112;24.738;2022-12-07T09:39:08;35.60;;;23.90;;
9888;SDS011;4983;42.112;24.738;2022-12-07T09:41:37;35.27;;;24.10;;
9888;SDS011;4983;42.112;24.738;2022-12-07T09:44:05;36.63;;;23.43;;
9888;SDS011;4983;42.112;24.738;2022-12-07T09:46:33;35.50;;;22.73;;
9888;SDS011;4983;42.112;24.738;2022-12-07T09:49:03;34.73;;;25.20;;
9888;SDS011;4983;42.112;24.738;2022-12-07T09:51:30;86.37;;;27.03;;
9888;SDS011;4983;42.112;24.738;2022-12-07T09:53:57;39.73;;;24.57;;
9888;SDS011;4983;42.112;24.738;2022-12-07T09:56:24;46.70;;;23.13;;
9888;SDS011;4983;42.112;24.738;2022-12-07T09:58:51;34.87;;;21.50;;
9888;SDS011;4983;42.112;24.738;2022-12-07T10:01:21;30.10;;;21.27;;
9888;SDS011;4983;42.112;24.738;2022-12-07T10:03:49;38.07;;;20.93;;
9888;SDS011;4983;42.112;24.738;2022-12-07T10:06:17;56.83;;;22.67;;
9888;SDS011;4983;42.112;24.738;2022-12-07T10:08:44;35.37;;;21.00;;
9888;SDS011;4983;42.112;24.738;2022-12-07T10:11:11;36.20;;;20.77;;
9888;SDS011;4983;42.112;24.738;2022-12-07T10:13:40;34.40;;;21.47;;
9888;SDS011;4983;42.112;24.738;2022-12-07T10:16:24;32.87;;;20.70;;
9888;SDS011;4983;42.112;24.738;2022-12-07T10:18:54;26.93;;;18.10;;
9888;SDS011;4983;42.112;24.738;2022-12-07T10:21:23;48.57;;;19.63;;
9888;SDS011;4983;42.112;24.738;2022-12-07T10:23:59;28.27;;;19.57;;
9888;SDS011;4983;42.112;24.738;2022-12-07T10:26:27;29.07;;;19.23;;
9888;SDS011;4983;42.112;24.738;2022-12-07T10:28:58;33.33;;;20.73;;
9888;SDS011;4983;42.112;24.738;2022-12-07T10:31:25;28.10;;;20.10;;
9888;SDS011;4983;42.112;24.738;2022-12-07T10:33:52;35.57;;;18.73;;
9888;SDS011;4983;42.112;24.738;2022-12-07T10:36:21;52.30;;;19.33;;
9888;SDS011;4983;42.112;24.738;2022-12-07T10:38:50;89.23;;;20.73;;
9888;SDS011;4983;42.112;24.738;2022-12-07T10:41:17;24.73;;;13.93;;
9888;SDS011;4983;42.112;24.738;2022-12-07T10:43:52;30.00;;;13.80;;
9888;SDS011;4983;42.112;24.738;2022-12-07T10:46:43;27.60;;;16.03;;
9888;SDS011;4983;42.112;24.738;2022-12-07T10:49:22;33.17;;;15.07;;
9888;SDS011;4983;42.112;24.738;2022-12-07T10:51:54;26.77;;;13.93;;
9888;SDS011;4983;42.112;24.738;2022-12-07T10:54:27;17.73;;;13.50;;
9888;SDS011;4983;42.112;24.738;2022-12-07T10:57:04;23.37;;;13.93;;
9888;SDS011;4983;42.112;24.738;2022-12-07T11:02:26;59.80;;;17.63;;
9888;SDS011;4983;42.112;24.738;2022-12-07T11:05:01;28.90;;;14.90;;
9888;SDS011;4983;42.112;24.738;2022-12-07T11:07:34;26.27;;;14.40;;
9888;SDS011;4983;42.112;24.738;2022-12-07T11:10:07;27.83;;;14.43;;
9888;SDS011;4983;42.112;24.738;2022-12-07T11:15:21;19.70;;;13.60;;
9888;SDS011;4983;42.112;24.738;2022-12-07T11:17:52;23.67;;;14.70;;
9888;SDS011;4983;42.112;24.738;2022-12-07T11:20:27;44.83;;;15.23;;
9888;SDS011;4983;42.112;24.738;2022-12-07T11:22:57;90.43;;;18.60;;
9888;SDS011;4983;42.112;24.738;2022-12-07T11:25:29;21.70;;;15.20;;
9888;SDS011;4983;42.112;24.738;2022-12-07T11:28:02;28.53;;;15.40;;
9888;SDS011;4983;42.112;24.738;2022-12-07T11:30:31;22.87;;;15.23;;
9888;SDS011;4983;42.112;24.738;2022-12-07T11:33:04;49.13;;;17.03;;
9888;SDS011;4983;42.112;24.738;2022-12-07T11:35:40;38.90;;;15.20;;
9888;SDS011;4983;42.112;24.738;2022-12-07T11:38:11;27.30;;;14.70;;
9888;SDS011;4983;42.112;24.738;2022-12-07T11:40:39;109.73;;;20.53;;
9888;SDS011;4983;42.112;24.738;2022-12-07T11:43:11;195.37;;;24.97;;
9888;SDS011;4983;42.112;24.738;2022-12-07T11:45:41;176.27;;;23.63;;
9888;SDS011;4983;42.112;24.738;2022-12-07T11:48:10;26.70;;;15.90;;
9888;SDS011;4983;42.112;24.738;2022-12-07T11:50:39;31.10;;;16.40;;
9888;SDS011;4983;42.112;24.738;2022-12-07T11:53:10;23.17;;;16.40;;
9888;SDS011;4983;42.112;24.738;2022-12-07T11:55:43;26.80;;;16.37;;
9888;SDS011;4983;42.112;24.738;2022-12-07T11:58:20;30.07;;;15.83;;
9888;SDS011;4983;42.112;24.738;2022-12-07T12:00:49;42.33;;;19.43;;
9888;SDS011;4983;42.112;24.738;2022-12-07T12:03:20;203.37;;;28.17;;
9888;SDS011;4983;42.112;24.738;2022-12-07T12:05:50;36.33;;;18.33;;
9888;SDS011;4983;42.112;24.738;2022-12-07T12:08:19;36.33;;;18.10;;
9888;SDS011;4983;42.112;24.738;2022-12-07T12:10:54;43.83;;;19.37;;
9888;SDS011;4983;42.112;24.738;2022-12-07T12:13:32;25.80;;;18.57;;
9888;SDS011;4983;42.112;24.738;2022-12-07T12:16:10;24.17;;;18.47;;
9888;SDS011;4983;42.112;24.738;2022-12-07T12:18:46;31.90;;;18.63;;
9888;SDS011;4983;42.112;24.738;2022-12-07T12:21:15;29.20;;;19.70;;
9888;SDS011;4983;42.112;24.738;2022-12-07T12:23:43;29.80;;;17.77;;
9888;SDS011;4983;42.112;24.738;2022-12-07T12:26:15;24.80;;;17.60;;
9888;SDS011;4983;42.112;24.738;2022-12-07T12:28:49;26.13;;;16.87;;
9888;SDS011;4983;42.112;24.738;2022-12-07T12:31:32;27.23;;;18.13;;
9888;SDS011;4983;42.112;24.738;2022-12-07T12:34:01;65.67;;;20.03;;
9888;SDS011;4983;42.112;24.738;2022-12-07T12:36:43;37.03;;;18.10;;
9888;SDS011;4983;42.112;24.738;2022-12-07T12:39:11;29.57;;;16.80;;
9888;SDS011;4983;42.112;24.738;2022-12-07T12:41:58;88.43;;;19.43;;
9888;SDS011;4983;42.112;24.738;2022-12-07T12:50:15;46.67;;;17.20;;
9888;SDS011;4983;42.112;24.738;2022-12-07T12:55:28;25.50;;;15.13;;
9888;SDS011;4983;42.112;24.738;2022-12-07T13:00:42;137.93;;;22.83;;
9888;SDS011;4983;42.112;24.738;2022-12-07T13:03:26;26.00;;;15.20;;
9888;SDS011;4983;42.112;24.738;2022-12-07T13:08:34;58.30;;;16.53;;
9888;SDS011;4983;42.112;24.738;2022-12-07T13:11:15;24.97;;;13.77;;
9888;SDS011;4983;42.112;24.738;2022-12-07T13:13:43;90.60;;;19.60;;
9888;SDS011;4983;42.112;24.738;2022-12-07T13:18:57;41.07;;;15.83;;
9888;SDS011;4983;42.112;24.738;2022-12-07T13:21:40;21.67;;;14.27;;
9888;SDS011;4983;42.112;24.738;2022-12-07T13:24:07;119.75;;;23.35;;
9888;SDS011;4983;42.112;24.738;2022-12-07T13:26:36;202.37;;;25.83;;
9888;SDS011;4983;42.112;24.738;2022-12-07T13:29:06;142.43;;;20.43;;
9888;SDS011;4983;42.112;24.738;2022-12-07T13:31:34;94.47;;;19.23;;
9888;SDS011;4983;42.112;24.738;2022-12-07T13:34:03;24.73;;;14.80;;
9888;SDS011;4983;42.112;24.738;2022-12-07T13:36:31;45.60;;;16.63;;
9888;SDS011;4983;42.112;24.738;2022-12-07T13:39:10;79.33;;;18.33;;
9888;SDS011;4983;42.112;24.738;2022-12-07T13:41:37;67.63;;;17.57;;
9888;SDS011;4983;42.112;24.738;2022-12-07T13:44:08;42.03;;;16.27;;
9888;SDS011;4983;42.112;24.738;2022-12-07T13:46:41;80.23;;;18.07;;
9888;SDS011;4983;42.112;24.738;2022-12-07T13:49:22;110.47;;;19.63;;
9888;SDS011;4983;42.112;24.738;2022-12-07T13:51:49;58.00;;;17.43;;
9888;SDS011;4983;42.112;24.738;2022-12-07T13:54:16;65.13;;;18.00;;
9888;SDS011;4983;42.112;24.738;2022-12-07T13:56:43;74.70;;;19.73;;
9888;SDS011;4983;42.112;24.738;2022-12-07T13:59:13;78.73;;;18.77;;
9888;SDS011;4983;42.112;24.738;2022-12-07T14:01:40;62.43;;;16.03;;
9888;SDS011;4983;42.112;24.738;2022-12-07T14:06:54;55.80;;;16.77;;
9888;SDS011;4983;42.112;24.738;2022-12-07T14:09:22;52.87;;;18.17;;
9888;SDS011;4983;42.112;24.738;2022-12-07T14:11:49;54.23;;;20.90;;
9888;SDS011;4983;42.112;24.738;2022-12-07T14:14:17;87.97;;;23.93;;
9888;SDS011;4983;42.112;24.738;2022-12-07T14:16:54;133.57;;;24.43;;
9888;SDS011;4983;42.112;24.738;2022-12-07T14:19:44;146.70;;;24.67;;
9888;SDS011;4983;42.112;24.738;2022-12-07T14:22:20;77.77;;;21.27;;
9888;SDS011;4983;42.112;24.738;2022-12-07T14:24:47;73.27;;;22.13;;
9888;SDS011;4983;42.112;24.738;2022-12-07T14:27:18;66.43;;;19.77;;
9888;SDS011;4983;42.112;24.738;2022-12-07T14:29:45;66.80;;;20.70;;
9888;SDS011;4983;42.112;24.738;2022-12-07T14:34:57;116.90;;;27.70;;
9888;SDS011;4983;42.112;24.738;2022-12-07T14:37:25;201.07;;;32.83;;
9888;SDS011;4983;42.112;24.738;2022-12-07T14:39:52;184.20;;;29.50;;
9888;SDS011;4983;42.112;24.738;2022-12-07T14:42:19;121.73;;;28.67;;
9888;SDS011;4983;42.112;24.738;2022-12-07T14:44:46;146.47;;;29.63;;
9888;SDS011;4983;42.112;24.738;2022-12-07T14:47:12;90.27;;;26.47;;
9888;SDS011;4983;42.112;24.738;2022-12-07T14:49:39;58.17;;;22.47;;
9888;SDS011;4983;42.112;24.738;2022-12-07T14:52:08;60.77;;;21.10;;
9888;SDS011;4983;42.112;24.738;2022-12-07T14:54:40;52.27;;;19.53;;
9888;SDS011;4983;42.112;24.738;2022-12-07T14:57:07;26.73;;;17.13;;
9888;SDS011;4983;42.112;24.738;2022-12-07T14:59:35;27.70;;;17.57;;
9888;SDS011;4983;42.112;24.738;2022-12-07T15:02:01;28.70;;;17.97;;
9888;SDS011;4983;42.112;24.738;2022-12-07T15:04:28;261.00;;;29.17;;
9888;SDS011;4983;42.112;24.738;2022-12-07T15:06:55;195.70;;;26.30;;
9888;SDS011;4983;42.112;24.738;2022-12-07T15:09:22;290.97;;;32.40;;
9888;SDS011;4983;42.112;24.738;2022-12-07T15:11:50;279.57;;;33.10;;
9888;SDS011;4983;42.112;24.738;2022-12-07T15:14:18;246.87;;;30.33;;
9888;SDS011;4983;42.112;24.738;2022-12-07T15:16:45;218.10;;;33.40;;